Time;durP1;ratioP1;P1;durP2;ratioP2;P2;SDS_P1;SDS_P2;PMS_P1;PMS_P2;Temp;Humidity;BMP_temperature;BMP_pressure;BME280_temperature;BME280_humidity;BME280_pressure;Samples;Min_cycle;Max_cycle;Signal;HPM_P1;HPM_P2
2023/06/10 00:00:44;;;;;;;13.73;9.82;;;;;;;25.21;43.31;101569.19;5032609;28;20087;-49
2023/06/10 00:03:10;;;;;;;15.13;9.98;;;;;;;25.30;43.21;101569.75;5033158;28;20567;-47
2023/06/10 00:05:38;;;;;;;13.18;9.18;;;;;;;25.55;42.48;101561.69;5031911;28;20046;-49
2023/06/10 00:08:07;;;;;;;12.60;9.23;;;;;;;25.52;42.52;101559.13;5031841;28;20037;-50
2023/06/10 00:10:34;;;;;;;13.15;9.75;;;;;;;25.32;42.46;101567.88;5031020;28;20478;-48
2023/06/10 00:13:00;;;;;;;16.90;9.55;;;;;;;25.30;42.61;101563.53;5030817;28;20088;-50
2023/06/10 00:15:26;;;;;;;12.40;8.95;;;;;;;25.15;42.91;101564.94;5032191;28;20036;-51
2023/06/10 00:17:54;;;;;;;13.13;8.85;;;;;;;25.22;42.55;101566.47;5032378;28;20033;-46
2023/06/10 00:20:21;;;;;;;13.48;9.27;;;;;;;25.14;42.49;101565.88;5032688;28;20056;-51
2023/06/10 00:22:48;;;;;;;14.25;8.88;;;;;;;24.99;42.80;101575.31;5032433;28;20030;-46
2023/06/10 00:25:14;;;;;;;12.73;8.48;;;;;;;25.15;41.91;101564.06;5032338;28;20038;-47
2023/06/10 00:27:39;;;;;;;13.18;9.20;;;;;;;25.07;42.04;101568.84;5032154;28;20037;-48
2023/06/10 00:30:06;;;;;;;12.23;8.88;;;;;;;25.01;41.71;101561.88;5032594;28;20056;-49
2023/06/10 00:32:36;;;;;;;14.98;8.60;;;;;;;25.17;41.08;101564.91;5032265;28;20034;-47
2023/06/10 00:35:02;;;;;;;14.40;8.32;;;;;;;25.02;41.53;101564.50;5032493;28;20061;-46
2023/06/10 00:37:28;;;;;;;13.90;8.60;;;;;;;24.96;41.92;101559.41;5032883;28;20080;-46
2023/06/10 00:39:54;;;;;;;11.45;8.07;;;;;;;25.20;41.27;101567.44;5032426;28;20112;-45
2023/06/10 00:42:19;;;;;;;13.82;8.60;;;;;;;25.08;41.12;101566.09;5032924;28;20116;-46
2023/06/10 00:44:44;;;;;;;11.40;8.00;;;;;;;25.23;41.20;101570.88;5031876;28;20495;-48
2023/06/10 00:47:10;;;;;;;12.70;7.75;;;;;;;25.29;40.92;101569.78;5031395;28;20132;-47
2023/06/10 00:49:36;;;;;;;13.95;8.45;;;;;;;24.79;41.81;101574.22;5030675;28;20132;-46
2023/06/10 00:52:06;;;;;;;12.95;7.85;;;;;;;25.07;41.26;101571.50;5032372;28;20034;-47
2023/06/10 00:54:32;;;;;;;12.73;7.68;;;;;;;25.04;41.63;101575.13;5031451;28;20426;-48
2023/06/10 00:57:01;;;;;;;14.20;7.75;;;;;;;24.62;42.00;101570.34;5032185;28;20124;-51
2023/06/10 00:59:28;;;;;;;12.45;7.63;;;;;;;24.67;42.01;101578.16;5031714;28;20033;-50
2023/06/10 01:01:53;;;;;;;10.88;7.70;;;;;;;24.82;42.08;101576.78;5031390;28;20029;-47
2023/06/10 01:04:19;;;;;;;11.45;7.20;;;;;;;24.67;42.13;101570.16;5031659;28;20041;-45
2023/06/10 01:07:38;;;;;;;12.15;7.35;;;;;;;24.85;42.07;101572.22;5031758;28;20036;-49
2023/06/10 01:10:09;;;;;;;11.93;7.60;;;;;;;24.83;41.66;101570.50;4989313;28;20133;-48
2023/06/10 01:12:48;;;;;;;9.43;7.10;;;;;;;24.79;41.34;101569.75;5024098;28;20412;-48
2023/06/10 01:15:15;;;;;;;13.40;7.38;;;;;;;24.19;42.68;101564.66;5030255;28;20060;-49
2023/06/10 01:17:57;;;;;;;11.65;7.00;;;;;;;24.63;41.93;101571.22;5031119;28;20037;-49
2023/06/10 01:20:24;;;;;;;9.75;6.80;;;;;;;24.66;41.66;101565.75;5032185;28;20037;-48
2023/06/10 01:22:50;;;;;;;12.07;6.88;;;;;;;24.69;42.08;101573.66;5031208;28;20041;-49
2023/06/10 01:25:17;;;;;;;10.80;7.18;;;;;;;24.43;42.09;101573.66;5031022;28;20491;-48
2023/06/10 01:27:45;;;;;;;12.70;7.40;;;;;;;24.35;42.13;101576.56;5031051;28;20037;-47
2023/06/10 01:30:15;;;;;;;12.20;7.25;;;;;;;24.25;42.20;101568.00;5031291;28;20030;-47
2023/06/10 01:32:45;;;;;;;11.18;7.22;;;;;;;24.52;41.74;101574.22;5031090;28;20044;-50
2023/06/10 01:35:10;;;;;;;10.13;7.20;;;;;;;24.18;42.31;101569.13;5030907;28;20113;-45
2023/06/10 01:37:39;;;;;;;11.60;7.18;;;;;;;24.39;41.89;101574.69;5031109;28;20136;-46
2023/06/10 01:40:05;;;;;;;11.50;6.75;;;;;;;24.22;41.84;101572.53;5029306;28;20571;-45
2023/06/10 01:42:32;;;;;;;11.07;7.13;;;;;;;24.36;41.89;101569.44;5031661;28;20499;-47
2023/06/10 01:44:58;;;;;;;10.45;7.07;;;;;;;24.10;42.56;101573.78;5030729;28;20043;-45
2023/06/10 01:47:23;;;;;;;13.10;6.88;;;;;;;24.27;41.98;101572.44;5031552;28;20029;-49
2023/06/10 01:49:49;;;;;;;13.13;7.00;;;;;;;24.29;41.73;101573.22;5030549;28;20452;-47
2023/06/10 01:52:14;;;;;;;13.13;6.65;;;;;;;24.28;41.91;101572.34;5031295;28;20476;-49
2023/06/10 01:54:40;;;;;;;9.40;6.38;;;;;;;24.27;41.95;101575.09;5029994;28;20041;-47
2023/06/10 01:57:06;;;;;;;9.75;6.47;;;;;;;24.12;42.03;101573.72;5029654;28;20404;-47
2023/06/10 01:59:31;;;;;;;10.73;6.10;;;;;;;24.01;42.01;101568.75;5030859;28;20412;-48
2023/06/10 02:01:56;;;;;;;11.40;6.30;;;;;;;24.18;42.11;101568.22;5031113;28;20026;-53
2023/06/10 02:04:22;;;;;;;10.50;6.45;;;;;;;24.07;42.21;101571.22;5030508;28;20030;-48
2023/06/10 02:06:48;;;;;;;10.32;6.47;;;;;;;24.03;41.81;101580.22;5030549;28;20037;-45
2023/06/10 02:09:13;;;;;;;9.65;6.45;;;;;;;24.01;42.04;101567.88;5030592;28;20125;-48
2023/06/10 02:11:39;;;;;;;12.02;6.78;;;;;;;23.88;42.14;101575.38;5030664;28;20041;-44
2023/06/10 02:14:04;;;;;;;12.55;6.43;;;;;;;23.89;42.01;101571.78;5030715;28;20030;-47
2023/06/10 02:16:30;;;;;;;11.50;6.60;;;;;;;23.70;42.28;101570.59;5031072;28;20087;-48
2023/06/10 02:18:56;;;;;;;14.27;6.30;;;;;;;23.91;41.72;101575.25;5030402;28;20037;-49
2023/06/10 02:21:21;;;;;;;9.07;6.30;;;;;;;23.75;41.96;101572.22;5031567;28;20030;-45
2023/06/10 02:23:46;;;;;;;9.13;6.40;;;;;;;23.77;41.79;101573.03;5030832;28;20129;-44
2023/06/10 02:26:12;;;;;;;10.55;6.00;;;;;;;23.74;41.47;101578.44;5030846;28;20116;-50
2023/06/10 02:28:37;;;;;;;12.02;6.32;;;;;;;23.65;41.96;101576.06;5029952;28;20041;-49
2023/06/10 02:31:03;;;;;;;9.23;6.25;;;;;;;23.77;41.35;101575.72;5030530;28;20333;-49
2023/06/10 02:33:28;;;;;;;11.07;6.28;;;;;;;23.82;41.26;101570.22;5030737;28;20172;-44
2023/06/10 02:35:54;;;;;;;10.23;6.60;;;;;;;23.85;40.78;101583.44;5029144;28;20136;-50
2023/06/10 02:38:19;;;;;;;10.27;6.40;;;;;;;23.84;41.03;101576.41;5030327;28;20496;-46
2023/06/10 02:40:44;;;;;;;11.27;6.20;;;;;;;23.71;41.17;101580.34;5028324;28;20039;-46
2023/06/10 02:43:10;;;;;;;9.73;6.47;;;;;;;23.64;41.01;101581.44;5030344;28;20708;-44
2023/06/10 02:45:35;;;;;;;10.23;6.47;;;;;;;23.55;41.23;101585.22;5028915;28;20083;-50
2023/06/10 02:48:01;;;;;;;10.43;6.38;;;;;;;23.62;41.13;101576.16;5029622;28;20037;-44
2023/06/10 02:50:26;;;;;;;10.32;6.07;;;;;;;23.76;41.04;101579.28;5029925;28;20095;-45
2023/06/10 02:52:51;;;;;;;9.55;6.28;;;;;;;23.69;40.56;101575.06;5029603;28;20500;-46
2023/06/10 02:55:17;;;;;;;10.68;5.90;;;;;;;23.65;40.62;101578.72;5029602;28;20037;-46
2023/06/10 02:57:42;;;;;;;10.18;6.03;;;;;;;23.67;40.59;101576.00;5029218;28;20411;-45
2023/06/10 03:00:11;;;;;;;9.48;6.10;;;;;;;23.66;40.85;101585.81;5029855;28;20021;-51
2023/06/10 03:02:38;;;;;;;10.07;6.35;;;;;;;23.32;41.46;101587.63;5029094;28;20056;-47
2023/06/10 03:05:05;;;;;;;9.45;6.30;;;;;;;23.48;41.08;101580.16;5029039;28;20035;-52
2023/06/10 03:07:30;;;;;;;9.00;5.85;;;;;;;23.52;41.09;101582.66;5029693;28;20102;-45
2023/06/10 03:09:58;;;;;;;12.25;6.15;;;;;;;23.40;40.82;101580.31;5052809;22;20045;-80
2023/06/10 03:12:27;;;;;;;9.40;5.80;;;;;;;23.31;41.27;101580.56;5036371;28;20498;-80
2023/06/10 03:14:52;;;;;;;8.45;6.13;;;;;;;23.45;40.67;101584.59;5056264;28;20059;-80
2023/06/10 03:17:17;;;;;;;10.88;6.35;;;;;;;23.34;41.18;101585.81;5058398;28;20550;-80
2023/06/10 03:19:43;;;;;;;13.57;6.60;;;;;;;23.26;41.10;101583.38;5054956;28;20058;-80
2023/06/10 03:22:16;;;;;;;10.95;6.72;;;;;;;23.16;41.64;101588.97;5059325;28;20090;-81
2023/06/10 03:24:43;;;;;;;10.83;6.50;;;;;;;23.14;41.55;101588.16;5055003;28;20041;-80
2023/06/10 03:27:11;;;;;;;11.70;6.65;;;;;;;23.12;41.50;101588.19;5053706;28;20360;-80
2023/06/10 03:29:39;;;;;;;10.20;6.45;;;;;;;23.18;41.45;101584.47;5053752;28;20029;-81
2023/06/10 03:32:06;;;;;;;9.43;6.05;;;;;;;23.30;41.24;101586.78;5053155;28;20559;-80
2023/06/10 03:34:31;;;;;;;11.65;6.05;;;;;;;23.01;42.12;101593.78;5053317;28;20116;-79
2023/06/10 03:36:57;;;;;;;11.52;6.40;;;;;;;23.20;41.45;101595.97;5053338;28;20426;-80
2023/06/10 03:39:28;;;;;;;17.75;6.57;;;;;;;22.90;42.00;101601.19;5034897;28;20066;-81
2023/06/10 03:41:54;;;;;;;10.60;6.43;;;;;;;23.20;41.46;101599.50;5054519;28;20470;-82
2023/06/10 03:44:19;;;;;;;10.25;6.38;;;;;;;23.02;41.26;101597.34;5054459;28;20086;-80
2023/06/10 03:46:48;;;;;;;10.18;6.30;;;;;;;22.92;41.76;101603.81;5035141;28;20064;-82
2023/06/10 03:49:14;;;;;;;17.23;6.90;;;;;;;22.98;41.69;101606.31;5053148;28;20378;-80
2023/06/10 03:51:40;;;;;;;9.85;6.05;;;;;;;22.97;42.14;101608.09;5034615;28;20124;-80
2023/06/10 03:54:05;;;;;;;9.73;5.78;;;;;;;23.16;40.94;101605.81;5053499;28;20114;-80
2023/06/10 03:56:31;;;;;;;11.60;6.20;;;;;;;22.98;41.42;101604.53;5052846;28;20120;-79
2023/06/10 03:58:56;;;;;;;9.10;5.95;;;;;;;23.19;41.50;101605.72;5058476;28;20044;-79
2023/06/10 04:01:25;;;;;;;10.70;6.00;;;;;;;23.00;41.48;101609.78;5043932;28;20025;-79
2023/06/10 04:03:54;;;;;;;12.65;6.03;;;;;;;23.01;41.22;101612.41;5065241;28;20088;-79
2023/06/10 04:06:19;;;;;;;10.27;6.03;;;;;;;23.37;40.90;101612.31;5066140;28;20025;-80
2023/06/10 04:08:45;;;;;;;11.63;6.10;;;;;;;23.15;41.29;101616.50;5060085;28;20371;-79
2023/06/10 04:11:10;;;;;;;8.95;5.88;;;;;;;23.24;41.36;101613.56;5044468;28;20052;-80
2023/06/10 04:13:38;;;;;;;9.82;6.10;;;;;;;23.14;41.75;101612.97;5060434;28;20051;-82
2023/06/10 04:16:04;;;;;;;10.73;6.05;;;;;;;22.86;41.80;101611.94;5061420;28;20029;-81
2023/06/10 04:18:32;;;;;;;8.52;5.72;;;;;;;23.28;41.22;101613.47;5061994;28;20068;-81
2023/06/10 04:20:57;;;;;;;10.32;6.07;;;;;;;23.15;41.61;101620.03;5043851;28;20052;-79
2023/06/10 04:23:23;;;;;;;10.80;5.75;;;;;;;23.57;41.43;101625.13;5066593;28;20029;-80
2023/06/10 04:25:59;;;;;;;8.77;5.80;;;;;;;23.52;41.36;101627.91;5049627;28;20397;-81
2023/06/10 04:28:27;;;;;;;12.82;6.72;;;;;;;23.30;42.03;101626.72;5066529;28;20033;-80
2023/06/10 04:30:53;;;;;;;14.52;6.13;;;;;;;23.45;41.51;101626.31;5061105;28;20043;-82
2023/06/10 04:33:24;;;;;;;9.75;6.13;;;;;;;23.42;41.41;101629.91;5058640;28;20033;-80
2023/06/10 04:35:55;;;;;;;11.02;5.72;;;;;;;23.72;41.17;101635.34;5048834;28;20051;-82
2023/06/10 04:38:27;;;;;;;9.90;6.15;;;;;;;23.59;42.03;101633.94;5044367;28;20059;-82
2023/06/10 04:41:04;;;;;;;9.57;6.00;;;;;;;23.65;41.10;101631.97;5059825;28;20104;-81
2023/06/10 04:43:30;;;;;;;9.82;6.28;;;;;;;23.56;41.71;101639.34;5060348;28;20119;-81
2023/06/10 04:45:55;;;;;;;11.68;5.78;;;;;;;23.85;41.44;101631.38;5040701;28;20633;-82
2023/06/10 04:48:24;;;;;;;9.65;5.95;;;;;;;23.98;40.78;101634.53;5059074;28;20036;-80
2023/06/10 04:50:50;;;;;;;9.63;6.25;;;;;;;23.92;41.13;101638.25;5057519;28;20072;-81
2023/06/10 04:53:22;;;;;;;10.63;6.43;;;;;;;23.81;41.44;101637.72;5059646;28;20052;-81
2023/06/10 04:55:48;;;;;;;10.20;6.43;;;;;;;24.11;41.02;101636.81;5058804;28;20500;-79
2023/06/10 04:58:13;;;;;;;10.23;6.35;;;;;;;23.90;41.26;101637.47;5059864;28;20040;-81
2023/06/10 05:00:43;;;;;;;14.02;6.10;;;;;;;24.03;41.92;101629.97;5059494;28;20056;-79
2023/06/10 05:03:08;;;;;;;10.35;6.63;;;;;;;24.15;40.76;101641.09;5057201;28;20063;-81
2023/06/10 05:05:34;;;;;;;10.68;6.38;;;;;;;24.16;40.94;101628.66;5055890;28;20041;-81
2023/06/10 05:08:02;;;;;;;10.35;6.50;;;;;;;24.21;40.74;101632.13;5055677;28;20098;-81
2023/06/10 05:10:31;;;;;;;9.05;6.10;;;;;;;24.46;40.84;101637.50;5056382;28;20436;-79
2023/06/10 05:12:58;;;;;;;10.80;6.43;;;;;;;24.79;39.55;101636.44;5037868;28;20033;-81
2023/06/10 05:15:26;;;;;;;10.90;6.43;;;;;;;26.01;37.86;101630.28;5037885;28;20037;-80
2023/06/10 05:17:52;;;;;;;8.98;5.85;;;;;;;27.29;36.05;101633.03;5055103;28;20045;-80
2023/06/10 05:20:18;;;;;;;11.77;6.13;;;;;;;28.13;34.15;101627.38;5055722;28;20036;-80
2023/06/10 05:22:44;;;;;;;10.05;6.40;;;;;;;28.51;32.47;101631.81;5056308;28;20032;-81
2023/06/10 05:25:12;;;;;;;8.45;5.38;;;;;;;28.98;32.19;101631.25;5056415;28;20083;-81
2023/06/10 05:27:38;;;;;;;10.48;6.30;;;;;;;29.53;31.29;101633.75;5055760;28;20455;-82
2023/06/10 05:30:04;;;;;;;13.50;5.57;;;;;;;29.80;30.27;101633.16;5055575;28;20038;-79
2023/06/10 05:32:29;;;;;;;9.18;6.10;;;;;;;29.97;30.36;101637.63;5056785;28;20045;-81
2023/06/10 05:34:54;;;;;;;10.18;5.72;;;;;;;30.39;29.98;101639.72;5055008;28;20113;-79
2023/06/10 05:37:21;;;;;;;9.30;5.60;;;;;;;30.85;28.78;101634.38;5056436;28;20025;-79
2023/06/10 05:39:49;;;;;;;8.60;5.95;;;;;;;30.42;29.09;101641.38;5037601;28;20041;-81
2023/06/10 05:42:14;;;;;;;9.82;5.47;;;;;;;30.97;28.90;101629.16;5057655;28;20036;-80
2023/06/10 05:44:40;;;;;;;9.77;5.50;;;;;;;30.96;29.05;101634.59;5062510;28;20100;-78
2023/06/10 05:47:14;;;;;;;10.35;6.00;;;;;;;31.02;28.70;101632.41;5050353;28;20112;-78
2023/06/10 05:49:40;;;;;;;10.95;5.63;;;;;;;31.16;28.54;101638.84;5063832;28;20037;-80
2023/06/10 05:52:05;;;;;;;9.95;5.88;;;;;;;31.54;27.62;101636.47;5067231;28;20067;-79
2023/06/10 05:54:31;;;;;;;11.70;5.80;;;;;;;31.18;28.45;101642.28;5069604;28;20037;-80
2023/06/10 05:56:56;;;;;;;9.52;5.95;;;;;;;31.49;28.34;101639.44;5064875;28;20033;-80
2023/06/10 05:59:22;;;;;;;9.27;6.13;;;;;;;31.52;28.06;101635.72;5041324;28;20032;-80
2023/06/10 06:01:48;;;;;;;11.18;6.00;;;;;;;31.64;27.94;101630.47;5059240;28;20512;-80
2023/06/10 06:04:14;;;;;;;11.30;5.93;;;;;;;32.30;27.35;101631.66;5057143;28;20044;-81
2023/06/10 06:06:40;;;;;;;9.90;5.60;;;;;;;31.96;27.25;101635.66;5056982;28;20038;-80
2023/06/10 06:09:05;;;;;;;8.52;5.80;;;;;;;32.20;26.87;101634.09;5062422;28;20037;-80
2023/06/10 06:11:31;;;;;;;11.50;5.78;;;;;;;31.70;28.64;101640.84;5048402;28;20063;-79
2023/06/10 06:14:02;;;;;;;9.93;5.55;;;;;;;31.98;27.56;101631.00;5045737;28;20040;-80
2023/06/10 06:16:27;;;;;;;7.13;5.20;;;;;;;33.01;26.46;101635.81;5062528;28;20048;-80
2023/06/10 06:18:53;;;;;;;8.98;5.43;;;;;;;33.30;26.08;101639.22;5057872;28;20029;-80
2023/06/10 06:21:24;;;;;;;8.25;5.43;;;;;;;33.55;25.86;101643.75;5056797;28;20036;-82
2023/06/10 06:23:49;;;;;;;13.15;5.80;;;;;;;33.91;25.30;101643.03;5060704;28;20051;-78
2023/06/10 06:26:18;;;;;;;10.65;5.93;;;;;;;33.65;25.72;101647.56;5045867;28;20025;-80
2023/06/10 06:28:43;;;;;;;8.55;5.60;;;;;;;33.38;25.50;101644.09;5063034;28;20075;-79
2023/06/10 06:31:08;;;;;;;8.70;5.57;;;;;;;33.45;25.80;101642.69;5064665;28;20469;-79
2023/06/10 06:33:40;;;;;;;8.07;5.68;;;;;;;33.35;25.40;101639.78;5060761;28;20040;-79
2023/06/10 06:36:08;;;;;;;8.00;5.60;;;;;;;34.08;24.81;101641.78;5059634;28;20087;-81
2023/06/10 06:38:41;;;;;;;12.77;6.05;;;;;;;33.73;24.78;101638.94;5057596;28;20110;-81
2023/06/10 06:41:09;;;;;;;8.13;5.88;;;;;;;33.09;25.91;101645.22;5056392;28;20032;-82
2023/06/10 06:43:37;;;;;;;8.85;5.95;;;;;;;33.79;25.66;101650.16;5056168;28;20037;-81
2023/06/10 06:46:03;;;;;;;12.23;7.45;;;;;;;34.26;24.89;101655.84;5038066;28;20120;-82
2023/06/10 06:48:28;;;;;;;9.25;5.72;;;;;;;34.12;25.00;101648.69;5061997;28;20063;-79
2023/06/10 06:50:59;;;;;;;8.77;5.50;;;;;;;34.47;25.10;101646.97;5063451;28;20452;-79
2023/06/10 06:53:25;;;;;;;12.25;5.70;;;;;;;34.62;24.57;101644.97;5064556;28;20048;-81
2023/06/10 06:55:50;;;;;;;10.30;5.38;;;;;;;34.78;24.28;101650.97;5063128;28;20088;-81
2023/06/10 06:58:25;;;;;;;10.35;5.63;;;;;;;34.36;24.74;101651.47;5063132;28;20029;-80
2023/06/10 07:00:50;;;;;;;8.98;5.78;;;;;;;34.94;23.68;101654.28;5061510;28;20040;-82
2023/06/10 07:03:15;;;;;;;12.27;5.80;;;;;;;35.48;24.22;101650.13;5060737;28;20029;-81
2023/06/10 07:05:42;;;;;;;9.10;5.55;;;;;;;35.93;23.08;101653.72;5061747;28;20163;-79
2023/06/10 07:08:08;;;;;;;16.80;5.55;;;;;;;35.99;22.62;101655.94;5062581;28;20063;-81
2023/06/10 07:10:36;;;;;;;8.93;5.50;;;;;;;35.05;23.50;101658.00;5064616;28;20033;-80
2023/06/10 07:13:02;;;;;;;10.18;5.45;;;;;;;34.91;23.94;101656.34;5045164;28;20119;-80
2023/06/10 07:15:27;;;;;;;7.70;5.47;;;;;;;35.03;23.52;101655.41;5060701;28;20033;-79
2023/06/10 07:17:53;;;;;;;11.30;5.78;;;;;;;34.29;24.56;101661.03;5074667;28;20025;-79
2023/06/10 07:20:21;;;;;;;10.90;5.30;;;;;;;34.73;24.00;101658.59;5074724;28;20016;-78
2023/06/10 07:22:49;;;;;;;11.52;5.90;;;;;;;35.14;23.75;101666.25;5071155;28;20037;-80
2023/06/10 07:25:21;;;;;;;8.52;5.47;;;;;;;35.71;22.74;101647.31;5071390;28;20021;-82
2023/06/10 07:27:55;;;;;;;9.85;5.45;;;;;;;35.88;23.03;101659.53;5065526;28;20064;-80
2023/06/10 07:30:21;;;;;;;7.82;5.63;;;;;;;35.79;22.32;101654.84;5051841;28;20040;-80
2023/06/10 07:32:55;;;;;;;8.40;5.13;;;;;;;36.25;22.28;101652.00;5052939;28;20033;-81
2023/06/10 07:35:21;;;;;;;9.60;5.20;;;;;;;36.25;22.42;101651.13;5054974;28;20032;-79
2023/06/10 07:37:46;;;;;;;10.00;5.07;;;;;;;36.54;21.56;101657.72;5053078;28;20449;-81
2023/06/10 07:40:14;;;;;;;9.45;5.70;;;;;;;36.28;21.60;101648.19;5053352;28;20072;-80
2023/06/10 07:42:40;;;;;;;7.75;5.32;;;;;;;36.53;22.39;101647.88;5054194;28;20116;-80
2023/06/10 07:45:11;;;;;;;10.50;5.15;;;;;;;36.69;21.88;101653.75;5055741;28;20057;-78
2023/06/10 07:47:36;;;;;;;8.50;5.20;;;;;;;36.65;22.21;101652.31;5036816;28;20039;-80
2023/06/10 07:50:02;;;;;;;8.82;5.38;;;;;;;36.39;21.74;101650.88;5055515;28;20497;-80
2023/06/10 07:52:28;;;;;;;6.78;5.10;;;;;;;36.75;22.60;101653.25;5055361;28;20048;-80
2023/06/10 07:54:53;;;;;;;8.00;4.90;;;;;;;37.14;21.53;101650.88;5037534;28;20150;-81
2023/06/10 07:57:25;;;;;;;6.55;4.80;;;;;;;37.42;21.95;101654.75;5058824;28;20060;-81
2023/06/10 07:59:50;;;;;;;7.70;5.00;;;;;;;37.30;22.03;101652.13;5062890;28;20053;-78
2023/06/10 08:02:19;;;;;;;8.82;5.20;;;;;;;37.36;21.36;101656.16;5058108;28;20513;-81
2023/06/10 08:04:53;;;;;;;11.63;5.40;;;;;;;37.77;21.18;101657.97;5060847;28;20584;-81
2023/06/10 08:07:19;;;;;;;8.32;5.50;;;;;;;37.35;21.94;101657.16;5065557;28;20029;-82
2023/06/10 08:09:44;;;;;;;9.27;5.30;;;;;;;37.29;22.33;101663.13;5060786;28;20393;-82
2023/06/10 08:12:10;;;;;;;8.05;5.13;;;;;;;37.52;23.06;101661.09;5059199;28;20032;-82
2023/06/10 08:14:36;;;;;;;9.38;5.45;;;;;;;37.34;22.85;101659.00;5057683;28;20048;-81
2023/06/10 08:17:06;;;;;;;11.73;5.97;;;;;;;37.71;22.32;101655.81;5041151;28;20021;-83
2023/06/10 08:19:31;;;;;;;9.15;4.93;;;;;;;37.75;21.35;101647.25;5057651;28;20071;-82
2023/06/10 08:21:57;;;;;;;9.43;4.90;;;;;;;37.44;22.07;101659.09;5059131;28;20083;-82
2023/06/10 08:24:28;;;;;;;8.73;5.55;;;;;;;36.39;23.19;101657.16;5057349;28;20037;-81
2023/06/10 08:26:55;;;;;;;12.50;6.05;;;;;;;35.91;24.56;101656.59;5059373;28;20036;-84
2023/06/10 08:29:20;;;;;;;6.28;5.10;;;;;;;36.70;24.12;101660.06;5058866;28;20033;-83
2023/06/10 08:31:51;;;;;;;9.55;5.65;;;;;;;36.92;22.94;101657.22;5062057;28;20045;-80
2023/06/10 08:34:16;;;;;;;8.30;5.72;;;;;;;37.02;23.31;101662.75;5068051;28;20037;-79
2023/06/10 08:36:44;;;;;;;8.50;5.70;;;;;;;35.72;24.41;101659.06;5062960;28;20067;-81
2023/06/10 08:39:09;;;;;;;10.18;5.68;;;;;;;35.15;25.20;101669.84;5037419;28;20094;-78
2023/06/10 08:41:40;;;;;;;11.13;6.07;;;;;;;34.08;26.51;101666.16;5049225;28;20033;-80
2023/06/10 08:44:14;;;;;;;11.35;5.82;;;;;;;33.59;27.63;101672.34;5062878;28;20033;-80
2023/06/10 08:46:44;;;;;;;7.45;5.82;;;;;;;33.16;28.49;101663.63;5042825;28;20029;-80
2023/06/10 08:49:10;;;;;;;9.57;5.75;;;;;;;32.85;28.85;101664.84;5064522;28;20046;-80
2023/06/10 08:51:36;;;;;;;9.50;6.22;;;;;;;32.81;29.61;101659.75;5061837;28;20036;-81
2023/06/10 08:54:09;;;;;;;9.88;6.82;;;;;;;32.53;29.02;101661.56;5057085;28;20029;-81
2023/06/10 08:56:40;;;;;;;10.38;6.15;;;;;;;32.60;28.81;101665.59;5056084;28;20029;-81
2023/06/10 08:59:06;;;;;;;13.13;6.38;;;;;;;32.53;29.29;101655.28;5059582;28;20098;-81
2023/06/10 09:01:34;;;;;;;10.27;6.70;;;;;;;32.69;29.52;101666.84;5071130;28;20037;-79
2023/06/10 09:04:03;;;;;;;13.68;6.70;;;;;;;32.35;29.88;101665.47;5068347;28;20481;-79
2023/06/10 09:06:33;;;;;;;8.85;6.57;;;;;;;32.05;30.29;101662.88;5068117;28;20045;-80
2023/06/10 09:09:08;;;;;;;12.57;6.53;;;;;;;32.19;29.93;101664.72;5064838;28;20087;-80
2023/06/10 09:11:42;;;;;;;13.27;6.55;;;;;;;32.31;29.80;101669.34;5067489;28;20041;-78
2023/06/10 09:14:12;;;;;;;12.57;6.10;;;;;;;32.42;29.46;101660.53;5064997;28;20173;-80
2023/06/10 09:16:38;;;;;;;10.68;6.68;;;;;;;32.07;30.01;101668.19;5061803;28;20049;-81
2023/06/10 09:19:11;;;;;;;10.35;6.20;;;;;;;32.12;30.00;101671.44;5060249;28;20492;-80
2023/06/10 09:21:36;;;;;;;8.60;6.35;;;;;;;32.42;30.27;101671.31;5039178;28;20087;-80
2023/06/10 09:24:11;;;;;;;9.48;6.38;;;;;;;32.33;30.12;101666.50;5038770;28;20033;-80
2023/06/10 09:26:36;;;;;;;7.78;6.28;;;;;;;32.25;29.64;101672.44;5055633;28;20128;-81
2023/06/10 09:29:09;;;;;;;8.27;5.75;;;;;;;32.42;29.55;101665.94;5037970;28;20079;-80
2023/06/10 09:31:39;;;;;;;11.60;6.35;;;;;;;32.71;29.33;101672.13;5055456;28;20041;-81
2023/06/10 09:34:12;;;;;;;11.48;6.68;;;;;;;32.64;29.08;101675.19;5037982;28;20048;-81
2023/06/10 09:36:38;;;;;;;11.65;6.40;;;;;;;32.58;28.17;101666.63;5055097;28;20033;-81
2023/06/10 09:39:04;;;;;;;10.02;6.60;;;;;;;31.94;28.81;101667.22;5043932;28;20029;-80
2023/06/10 09:41:39;;;;;;;8.52;6.32;;;;;;;32.43;28.93;101664.97;5054570;28;20040;-81
2023/06/10 09:44:12;;;;;;;12.50;6.53;;;;;;;32.58;28.83;101669.34;5054340;28;20025;-82
2023/06/10 09:46:37;;;;;;;8.48;6.18;;;;;;;32.55;28.48;101670.44;5054032;28;20064;-80
2023/06/10 09:49:08;;;;;;;7.82;6.18;;;;;;;32.45;29.58;101663.88;5054647;28;20029;-79
2023/06/10 09:51:36;;;;;;;10.15;6.00;;;;;;;32.92;27.96;101668.00;5054353;28;20047;-81
2023/06/10 09:54:05;;;;;;;9.75;6.45;;;;;;;32.82;27.78;101669.56;5054652;28;20064;-80
2023/06/10 09:56:42;;;;;;;9.77;6.50;;;;;;;32.29;28.68;101660.47;5056503;28;20040;-80
2023/06/10 09:59:12;;;;;;;11.77;6.22;;;;;;;32.62;28.22;101663.66;5055366;28;20079;-80
2023/06/10 10:01:37;;;;;;;13.77;6.80;;;;;;;32.41;28.95;101658.78;5053908;28;20393;-82
2023/06/10 10:04:05;;;;;;;9.50;6.40;;;;;;;32.45;28.63;101671.97;5055975;28;20094;-79
2023/06/10 10:06:31;;;;;;;9.65;6.30;;;;;;;32.64;27.94;101655.44;5037976;28;20043;-79
2023/06/10 10:09:00;;;;;;;15.68;6.20;;;;;;;32.69;28.33;101666.84;5054394;28;20108;-79
2023/06/10 10:11:27;;;;;;;8.90;6.25;;;;;;;32.30;30.44;101666.72;5054753;28;20033;-79
2023/06/10 10:13:53;;;;;;;12.15;6.22;;;;;;;32.74;29.88;101658.44;5054522;28;20079;-81
2023/06/10 10:16:33;;;;;;;8.25;6.45;;;;;;;32.08;28.41;101646.47;5055233;28;20033;-81
2023/06/10 10:19:27;;;;;;;8.15;6.35;;;;;;;32.47;29.02;101659.25;5045885;28;20469;-80
2023/06/10 10:22:03;;;;;;;10.40;6.72;;;;;;;32.83;28.99;101657.78;5046853;28;20071;-81
2023/06/10 10:24:52;;;;;;;9.48;6.40;;;;;;;32.88;29.25;101653.81;5055231;28;20090;-81
2023/06/10 10:27:28;;;;;;;13.27;7.00;;;;;;;32.74;28.80;101650.34;5037333;28;20112;-81
2023/06/10 10:29:55;;;;;;;10.32;6.95;;;;;;;32.78;29.12;101657.25;5054653;28;20036;-79
2023/06/10 10:32:28;;;;;;;9.10;6.45;;;;;;;32.83;29.38;101645.16;5045718;28;20033;-80
2023/06/10 10:35:07;;;;;;;8.90;6.53;;;;;;;32.88;28.50;101647.53;5060794;28;20079;-81
2023/06/10 10:37:33;;;;;;;8.27;6.65;;;;;;;33.13;28.35;101644.03;5038317;28;20046;-78
2023/06/10 10:40:00;;;;;;;9.38;7.15;;;;;;;32.83;28.51;101650.56;5059710;28;20033;-78
2023/06/10 10:42:26;;;;;;;12.15;7.05;;;;;;;32.65;29.11;101643.66;5064494;28;20051;-77
2023/06/10 10:45:14;;;;;;;9.13;6.13;;;;;;;32.58;28.72;101636.94;5065186;28;20060;-81
2023/06/10 10:47:41;;;;;;;9.70;7.10;;;;;;;32.56;28.54;101642.47;5042645;28;20358;-80
2023/06/10 10:50:15;;;;;;;9.85;6.53;;;;;;;32.94;28.41;101637.19;5043299;28;20043;-80
2023/06/10 10:53:07;;;;;;;10.18;6.60;;;;;;;32.62;27.77;101649.28;5060098;28;20028;-79
2023/06/10 10:55:33;;;;;;;9.90;6.32;;;;;;;32.94;28.30;101641.72;5023361;28;20082;-80
2023/06/10 10:58:13;;;;;;;11.63;6.90;;;;;;;32.92;27.50;101636.44;5053169;28;20036;-79
2023/06/10 11:00:44;;;;;;;12.30;6.53;;;;;;;33.02;27.25;101632.13;5035101;28;20036;-79
2023/06/10 11:03:16;;;;;;;9.20;6.90;;;;;;;33.58;28.79;101640.84;5053120;28;20087;-80
2023/06/10 11:05:49;;;;;;;8.57;6.07;;;;;;;33.63;27.29;101635.13;5052635;28;20547;-79
2023/06/10 11:08:32;;;;;;;;;;;;;;;33.36;27.78;101635.25;5054039;28;20048;-79
2023/06/10 11:10:58;;;;;;;10.00;6.82;;;;;;;33.24;26.48;101631.53;5053346;28;19917;-81
2023/06/10 11:13:27;;;;;;;8.70;6.45;;;;;;;33.61;26.96;101629.81;5055654;28;20032;-80
2023/06/10 11:15:58;;;;;;;9.45;6.30;;;;;;;33.24;27.24;101626.13;5054089;28;20055;-80
2023/06/10 11:18:38;;;;;;;8.65;6.40;;;;;;;33.18;26.75;101631.09;5055211;28;20036;-81
2023/06/10 11:21:04;;;;;;;11.10;6.45;;;;;;;33.39;27.27;101626.91;5036702;28;20029;-80
2023/06/10 11:23:35;;;;;;;10.63;6.20;;;;;;;33.13;27.40;101625.97;5054761;28;20032;-79
2023/06/10 11:26:13;;;;;;;10.85;6.13;;;;;;;33.37;27.99;101621.59;5054157;28;20516;-80